Current | Forecast
Updated: 12:00 PM EEST on June 29, 2017
Observed at Odessa, Ukraine
Temperature 28°C
Humidity 58%
Dew Point 19°C
Wind SSE at 22 km/h
Pressure 1011 hPa (Steady)
Conditions Scattered Clouds
Visibility 10.0 kilometers
UV 7 out of 16
Clouds Scattered Clouds (SCT) : 914 m
Yesterday's Maximum 29°C
Yesterday's Minimum 20°C approx.
Yesterday's Cooling Degree Days 11 approx.
Sunrise5:04 AM EEST
Sunset8:53 PM EEST
Moon Rise11:14 AM EEST
Moon Set
Moon PhaseMoon Phase
Waxing Crescent
Raw METARMETAR UKOO 290900Z 15006MPS 130V210 9999 SCT030 28/19 Q1011 R16/090060 NOSIG


Monday
. High: 62° F.
Tuesday
. High: 64° F.
Wednesday
. High: 62° F.
Thursday
. High: 64° F.
Friday
. High: 64° F.
Saturday
. High: 69° F.
Sunday
. High: 66° F.
Monday
. High: 68° F.

Units: English | Metric

Find the Weather for any City, State or Zipcode, or Country:

U.S. State List | Severe Weather | Tropical Storms | Ski Conditions
United States | Canada | Central America | South America | Asia | Europe | Australia | Africa | Islands

Weather Underground

© Copyright 2017
The Weather Company, LLC